sensor_id;sensor_type;location;lat;lon;timestamp;P1;durP1;ratioP1;P2;durP2;ratioP2
6344;SDS011;3205;42.666;23.264;2022-12-10T00:00:10;49.10;;;18.77;;
6344;SDS011;3205;42.666;23.264;2022-12-10T00:02:37;37.93;;;14.73;;
6344;SDS011;3205;42.666;23.264;2022-12-10T00:05:04;39.67;;;18.03;;
6344;SDS011;3205;42.666;23.264;2022-12-10T00:07:31;33.80;;;16.60;;
6344;SDS011;3205;42.666;23.264;2022-12-10T00:09:57;60.97;;;28.47;;
6344;SDS011;3205;42.666;23.264;2022-12-10T00:12:24;50.47;;;20.37;;
6344;SDS011;3205;42.666;23.264;2022-12-10T00:14:50;53.13;;;24.30;;
6344;SDS011;3205;42.666;23.264;2022-12-10T00:17:16;46.33;;;18.80;;
6344;SDS011;3205;42.666;23.264;2022-12-10T00:19:42;39.13;;;17.47;;
6344;SDS011;3205;42.666;23.264;2022-12-10T00:22:08;38.83;;;15.93;;
6344;SDS011;3205;42.666;23.264;2022-12-10T00:24:35;47.73;;;20.77;;
6344;SDS011;3205;42.666;23.264;2022-12-10T00:27:01;34.87;;;17.47;;
6344;SDS011;3205;42.666;23.264;2022-12-10T00:29:27;47.53;;;18.20;;
6344;SDS011;3205;42.666;23.264;2022-12-10T00:31:53;38.33;;;19.03;;
6344;SDS011;3205;42.666;23.264;2022-12-10T00:34:21;37.47;;;15.87;;
6344;SDS011;3205;42.666;23.264;2022-12-10T00:36:48;32.97;;;15.47;;
6344;SDS011;3205;42.666;23.264;2022-12-10T00:39:15;36.03;;;16.63;;
6344;SDS011;3205;42.666;23.264;2022-12-10T00:41:45;34.33;;;16.17;;
6344;SDS011;3205;42.666;23.264;2022-12-10T00:44:12;38.67;;;15.20;;
6344;SDS011;3205;42.666;23.264;2022-12-10T00:46:39;46.27;;;23.17;;
6344;SDS011;3205;42.666;23.264;2022-12-10T00:49:05;32.27;;;14.03;;
6344;SDS011;3205;42.666;23.264;2022-12-10T00:51:32;42.50;;;15.60;;
6344;SDS011;3205;42.666;23.264;2022-12-10T00:53:58;35.63;;;14.37;;
6344;SDS011;3205;42.666;23.264;2022-12-10T00:56:25;38.00;;;16.40;;
6344;SDS011;3205;42.666;23.264;2022-12-10T00:58:54;39.43;;;15.97;;
6344;SDS011;3205;42.666;23.264;2022-12-10T01:01:21;34.50;;;15.40;;
6344;SDS011;3205;42.666;23.264;2022-12-10T01:03:50;40.50;;;22.30;;
6344;SDS011;3205;42.666;23.264;2022-12-10T01:06:18;37.93;;;15.80;;
6344;SDS011;3205;42.666;23.264;2022-12-10T01:08:46;31.70;;;13.87;;
6344;SDS011;3205;42.666;23.264;2022-12-10T01:11:13;33.27;;;14.93;;
6344;SDS011;3205;42.666;23.264;2022-12-10T01:13:41;34.03;;;17.00;;
6344;SDS011;3205;42.666;23.264;2022-12-10T01:16:09;34.00;;;15.33;;
6344;SDS011;3205;42.666;23.264;2022-12-10T01:18:37;39.77;;;14.57;;
6344;SDS011;3205;42.666;23.264;2022-12-10T01:21:05;40.17;;;16.20;;
6344;SDS011;3205;42.666;23.264;2022-12-10T01:23:32;34.20;;;15.23;;
6344;SDS011;3205;42.666;23.264;2022-12-10T01:26:00;29.33;;;13.00;;
6344;SDS011;3205;42.666;23.264;2022-12-10T01:28:28;45.53;;;16.83;;
6344;SDS011;3205;42.666;23.264;2022-12-10T01:30:55;36.37;;;14.17;;
6344;SDS011;3205;42.666;23.264;2022-12-10T01:33:26;33.40;;;13.50;;
6344;SDS011;3205;42.666;23.264;2022-12-10T01:35:52;29.67;;;14.90;;
6344;SDS011;3205;42.666;23.264;2022-12-10T01:38:18;22.27;;;12.43;;
6344;SDS011;3205;42.666;23.264;2022-12-10T01:40:44;30.97;;;13.17;;
6344;SDS011;3205;42.666;23.264;2022-12-10T01:43:11;27.77;;;12.57;;
6344;SDS011;3205;42.666;23.264;2022-12-10T01:45:39;29.83;;;13.70;;
6344;SDS011;3205;42.666;23.264;2022-12-10T01:48:05;30.17;;;11.73;;
6344;SDS011;3205;42.666;23.264;2022-12-10T01:50:32;34.73;;;12.10;;
6344;SDS011;3205;42.666;23.264;2022-12-10T01:52:58;28.03;;;11.67;;
6344;SDS011;3205;42.666;23.264;2022-12-10T01:55:37;33.73;;;12.87;;
6344;SDS011;3205;42.666;23.264;2022-12-10T01:58:05;26.00;;;11.10;;
6344;SDS011;3205;42.666;23.264;2022-12-10T02:00:31;29.70;;;11.90;;
6344;SDS011;3205;42.666;23.264;2022-12-10T02:03:04;32.87;;;12.07;;
6344;SDS011;3205;42.666;23.264;2022-12-10T02:05:36;34.50;;;12.60;;
6344;SDS011;3205;42.666;23.264;2022-12-10T02:08:08;32.33;;;10.90;;
6344;SDS011;3205;42.666;23.264;2022-12-10T02:10:46;24.73;;;10.53;;
6344;SDS011;3205;42.666;23.264;2022-12-10T02:13:25;52.57;;;28.60;;
6344;SDS011;3205;42.666;23.264;2022-12-10T02:15:57;24.07;;;10.63;;
6344;SDS011;3205;42.666;23.264;2022-12-10T02:18:26;20.33;;;11.87;;
6344;SDS011;3205;42.666;23.264;2022-12-10T02:20:58;28.63;;;13.60;;
6344;SDS011;3205;42.666;23.264;2022-12-10T02:23:30;29.97;;;12.10;;
6344;SDS011;3205;42.666;23.264;2022-12-10T02:26:02;26.60;;;10.23;;
6344;SDS011;3205;42.666;23.264;2022-12-10T02:28:36;26.47;;;10.93;;
6344;SDS011;3205;42.666;23.264;2022-12-10T02:31:11;29.43;;;9.87;;
6344;SDS011;3205;42.666;23.264;2022-12-10T02:33:42;21.67;;;11.03;;
6344;SDS011;3205;42.666;23.264;2022-12-10T02:36:13;22.80;;;10.17;;
6344;SDS011;3205;42.666;23.264;2022-12-10T02:38:41;23.40;;;10.27;;
6344;SDS011;3205;42.666;23.264;2022-12-10T02:41:13;23.43;;;9.67;;
6344;SDS011;3205;42.666;23.264;2022-12-10T02:43:42;24.63;;;10.70;;
6344;SDS011;3205;42.666;23.264;2022-12-10T02:46:11;34.30;;;10.23;;
6344;SDS011;3205;42.666;23.264;2022-12-10T02:48:38;19.77;;;10.40;;
6344;SDS011;3205;42.666;23.264;2022-12-10T02:51:06;16.97;;;9.80;;
6344;SDS011;3205;42.666;23.264;2022-12-10T02:53:32;17.47;;;8.77;;
6344;SDS011;3205;42.666;23.264;2022-12-10T02:56:04;25.73;;;9.53;;
6344;SDS011;3205;42.666;23.264;2022-12-10T02:58:40;33.20;;;10.53;;
6344;SDS011;3205;42.666;23.264;2022-12-10T03:01:16;28.17;;;10.13;;
6344;SDS011;3205;42.666;23.264;2022-12-10T03:03:55;29.70;;;10.20;;
6344;SDS011;3205;42.666;23.264;2022-12-10T03:06:27;23.20;;;10.47;;
6344;SDS011;3205;42.666;23.264;2022-12-10T03:08:58;25.63;;;11.13;;
6344;SDS011;3205;42.666;23.264;2022-12-10T03:11:30;23.13;;;10.60;;
6344;SDS011;3205;42.666;23.264;2022-12-10T03:13:57;28.57;;;12.03;;
6344;SDS011;3205;42.666;23.264;2022-12-10T03:16:28;24.20;;;11.23;;
6344;SDS011;3205;42.666;23.264;2022-12-10T03:19:00;32.13;;;10.13;;
6344;SDS011;3205;42.666;23.264;2022-12-10T03:21:29;22.97;;;10.70;;
6344;SDS011;3205;42.666;23.264;2022-12-10T03:23:59;26.63;;;9.93;;
6344;SDS011;3205;42.666;23.264;2022-12-10T03:26:25;32.07;;;10.60;;
6344;SDS011;3205;42.666;23.264;2022-12-10T03:28:54;20.73;;;10.23;;
6344;SDS011;3205;42.666;23.264;2022-12-10T03:31:27;19.60;;;9.33;;
6344;SDS011;3205;42.666;23.264;2022-12-10T03:33:55;22.40;;;10.63;;
6344;SDS011;3205;42.666;23.264;2022-12-10T03:36:22;14.77;;;8.57;;
6344;SDS011;3205;42.666;23.264;2022-12-10T03:38:49;26.30;;;9.27;;
6344;SDS011;3205;42.666;23.264;2022-12-10T03:41:18;22.67;;;9.53;;
6344;SDS011;3205;42.666;23.264;2022-12-10T03:43:49;21.60;;;10.47;;
6344;SDS011;3205;42.666;23.264;2022-12-10T03:46:16;19.27;;;10.53;;
6344;SDS011;3205;42.666;23.264;2022-12-10T03:48:43;18.93;;;10.27;;
6344;SDS011;3205;42.666;23.264;2022-12-10T03:51:10;22.27;;;10.23;;
6344;SDS011;3205;42.666;23.264;2022-12-10T03:53:36;27.73;;;10.17;;
6344;SDS011;3205;42.666;23.264;2022-12-10T03:56:02;27.33;;;11.10;;
6344;SDS011;3205;42.666;23.264;2022-12-10T03:58:28;22.40;;;10.30;;
6344;SDS011;3205;42.666;23.264;2022-12-10T04:00:55;22.43;;;11.00;;
6344;SDS011;3205;42.666;23.264;2022-12-10T04:03:21;18.83;;;9.17;;
6344;SDS011;3205;42.666;23.264;2022-12-10T04:05:47;21.23;;;10.40;;
6344;SDS011;3205;42.666;23.264;2022-12-10T04:08:13;22.27;;;10.50;;
6344;SDS011;3205;42.666;23.264;2022-12-10T04:10:40;20.60;;;9.03;;
6344;SDS011;3205;42.666;23.264;2022-12-10T04:13:06;14.57;;;8.20;;
6344;SDS011;3205;42.666;23.264;2022-12-10T04:15:50;24.60;;;8.97;;
6344;SDS011;3205;42.666;23.264;2022-12-10T04:18:35;17.30;;;9.43;;
6344;SDS011;3205;42.666;23.264;2022-12-10T04:21:02;20.37;;;8.13;;
6344;SDS011;3205;42.666;23.264;2022-12-10T04:23:46;22.10;;;9.90;;
6344;SDS011;3205;42.666;23.264;2022-12-10T04:26:33;23.97;;;11.37;;
6344;SDS011;3205;42.666;23.264;2022-12-10T04:29:18;16.70;;;8.80;;
6344;SDS011;3205;42.666;23.264;2022-12-10T04:31:44;22.40;;;10.43;;
6344;SDS011;3205;42.666;23.264;2022-12-10T04:34:12;29.70;;;11.33;;
6344;SDS011;3205;42.666;23.264;2022-12-10T04:36:38;22.47;;;10.07;;
6344;SDS011;3205;42.666;23.264;2022-12-10T04:39:05;25.17;;;11.67;;
6344;SDS011;3205;42.666;23.264;2022-12-10T04:41:50;18.90;;;10.53;;
6344;SDS011;3205;42.666;23.264;2022-12-10T04:44:17;18.97;;;9.33;;
6344;SDS011;3205;42.666;23.264;2022-12-10T04:46:44;28.77;;;10.70;;
6344;SDS011;3205;42.666;23.264;2022-12-10T04:49:10;31.77;;;9.63;;
6344;SDS011;3205;42.666;23.264;2022-12-10T04:51:37;21.27;;;9.00;;
6344;SDS011;3205;42.666;23.264;2022-12-10T04:54:05;19.43;;;9.13;;
6344;SDS011;3205;42.666;23.264;2022-12-10T04:56:32;21.07;;;8.27;;
6344;SDS011;3205;42.666;23.264;2022-12-10T04:58:59;17.07;;;8.90;;
6344;SDS011;3205;42.666;23.264;2022-12-10T05:01:27;21.47;;;7.10;;
6344;SDS011;3205;42.666;23.264;2022-12-10T05:03:54;19.17;;;7.43;;
6344;SDS011;3205;42.666;23.264;2022-12-10T05:06:23;15.93;;;7.60;;
6344;SDS011;3205;42.666;23.264;2022-12-10T05:08:50;16.57;;;8.20;;
6344;SDS011;3205;42.666;23.264;2022-12-10T05:11:18;23.47;;;8.20;;
6344;SDS011;3205;42.666;23.264;2022-12-10T05:13:46;14.93;;;7.17;;
6344;SDS011;3205;42.666;23.264;2022-12-10T05:16:13;16.17;;;8.20;;
6344;SDS011;3205;42.666;23.264;2022-12-10T05:18:41;13.70;;;7.30;;
6344;SDS011;3205;42.666;23.264;2022-12-10T05:21:09;19.00;;;8.23;;
6344;SDS011;3205;42.666;23.264;2022-12-10T05:23:38;16.80;;;6.10;;
6344;SDS011;3205;42.666;23.264;2022-12-10T05:26:06;15.43;;;7.23;;
6344;SDS011;3205;42.666;23.264;2022-12-10T05:28:34;15.23;;;7.57;;
6344;SDS011;3205;42.666;23.264;2022-12-10T05:31:03;15.27;;;7.87;;
6344;SDS011;3205;42.666;23.264;2022-12-10T05:33:30;13.97;;;7.77;;
6344;SDS011;3205;42.666;23.264;2022-12-10T05:35:59;17.87;;;7.47;;
6344;SDS011;3205;42.666;23.264;2022-12-10T05:38:26;21.53;;;7.90;;
6344;SDS011;3205;42.666;23.264;2022-12-10T05:40:55;20.70;;;7.30;;
6344;SDS011;3205;42.666;23.264;2022-12-10T05:43:26;18.70;;;8.13;;
6344;SDS011;3205;42.666;23.264;2022-12-10T05:45:54;19.00;;;7.30;;
6344;SDS011;3205;42.666;23.264;2022-12-10T05:48:27;17.30;;;7.60;;
6344;SDS011;3205;42.666;23.264;2022-12-10T05:50:53;15.67;;;7.27;;
6344;SDS011;3205;42.666;23.264;2022-12-10T05:53:19;17.33;;;8.97;;
6344;SDS011;3205;42.666;23.264;2022-12-10T05:55:45;21.47;;;8.67;;
6344;SDS011;3205;42.666;23.264;2022-12-10T05:58:11;20.03;;;8.80;;
6344;SDS011;3205;42.666;23.264;2022-12-10T06:00:39;20.63;;;7.73;;
6344;SDS011;3205;42.666;23.264;2022-12-10T06:03:08;19.70;;;8.57;;
6344;SDS011;3205;42.666;23.264;2022-12-10T06:05:35;17.87;;;9.00;;
6344;SDS011;3205;42.666;23.264;2022-12-10T06:08:04;17.83;;;8.33;;
6344;SDS011;3205;42.666;23.264;2022-12-10T06:10:30;28.77;;;15.97;;
6344;SDS011;3205;42.666;23.264;2022-12-10T06:12:56;21.57;;;12.07;;
6344;SDS011;3205;42.666;23.264;2022-12-10T06:15:23;21.37;;;11.13;;
6344;SDS011;3205;42.666;23.264;2022-12-10T06:17:49;27.90;;;13.47;;
6344;SDS011;3205;42.666;23.264;2022-12-10T06:20:18;20.33;;;10.93;;
6344;SDS011;3205;42.666;23.264;2022-12-10T06:22:44;23.63;;;11.10;;
6344;SDS011;3205;42.666;23.264;2022-12-10T06:25:10;27.33;;;12.17;;
6344;SDS011;3205;42.666;23.264;2022-12-10T06:27:36;38.03;;;16.90;;
6344;SDS011;3205;42.666;23.264;2022-12-10T06:30:04;20.07;;;11.37;;
6344;SDS011;3205;42.666;23.264;2022-12-10T06:32:31;27.33;;;11.10;;
6344;SDS011;3205;42.666;23.264;2022-12-10T06:34:57;19.13;;;9.73;;
6344;SDS011;3205;42.666;23.264;2022-12-10T06:37:24;22.57;;;10.30;;
6344;SDS011;3205;42.666;23.264;2022-12-10T06:39:50;23.67;;;9.63;;
6344;SDS011;3205;42.666;23.264;2022-12-10T06:42:17;20.43;;;9.30;;
6344;SDS011;3205;42.666;23.264;2022-12-10T06:44:44;18.03;;;9.83;;
6344;SDS011;3205;42.666;23.264;2022-12-10T06:47:10;19.87;;;9.47;;
6344;SDS011;3205;42.666;23.264;2022-12-10T06:49:36;20.40;;;8.93;;
6344;SDS011;3205;42.666;23.264;2022-12-10T06:52:03;22.23;;;10.00;;
6344;SDS011;3205;42.666;23.264;2022-12-10T06:54:32;17.73;;;8.53;;
6344;SDS011;3205;42.666;23.264;2022-12-10T06:56:58;25.20;;;9.73;;
6344;SDS011;3205;42.666;23.264;2022-12-10T06:59:26;37.43;;;15.80;;
6344;SDS011;3205;42.666;23.264;2022-12-10T07:01:53;25.73;;;12.60;;
6344;SDS011;3205;42.666;23.264;2022-12-10T07:04:19;29.87;;;13.40;;
6344;SDS011;3205;42.666;23.264;2022-12-10T07:06:45;34.43;;;14.10;;
6344;SDS011;3205;42.666;23.264;2022-12-10T07:09:12;33.87;;;16.20;;
6344;SDS011;3205;42.666;23.264;2022-12-10T07:11:38;35.77;;;16.83;;
6344;SDS011;3205;42.666;23.264;2022-12-10T07:14:05;26.13;;;10.87;;
6344;SDS011;3205;42.666;23.264;2022-12-10T07:16:31;22.27;;;10.80;;
6344;SDS011;3205;42.666;23.264;2022-12-10T07:18:59;28.37;;;13.03;;
6344;SDS011;3205;42.666;23.264;2022-12-10T07:21:28;25.07;;;11.27;;
6344;SDS011;3205;42.666;23.264;2022-12-10T07:23:56;20.50;;;10.43;;
6344;SDS011;3205;42.666;23.264;2022-12-10T07:26:24;21.50;;;10.63;;
6344;SDS011;3205;42.666;23.264;2022-12-10T07:28:53;28.20;;;11.33;;
6344;SDS011;3205;42.666;23.264;2022-12-10T07:31:19;24.10;;;11.00;;
6344;SDS011;3205;42.666;23.264;2022-12-10T07:33:47;16.20;;;9.73;;
6344;SDS011;3205;42.666;23.264;2022-12-10T07:36:13;29.10;;;10.20;;
6344;SDS011;3205;42.666;23.264;2022-12-10T07:38:40;18.33;;;10.40;;
6344;SDS011;3205;42.666;23.264;2022-12-10T07:41:08;16.83;;;9.47;;
6344;SDS011;3205;42.666;23.264;2022-12-10T07:43:36;15.80;;;8.67;;
6344;SDS011;3205;42.666;23.264;2022-12-10T07:46:05;17.87;;;9.27;;
6344;SDS011;3205;42.666;23.264;2022-12-10T07:48:33;16.47;;;10.33;;
6344;SDS011;3205;42.666;23.264;2022-12-10T07:51:00;24.70;;;10.83;;
6344;SDS011;3205;42.666;23.264;2022-12-10T07:53:26;21.83;;;10.40;;
6344;SDS011;3205;42.666;23.264;2022-12-10T07:55:52;16.53;;;9.50;;
6344;SDS011;3205;42.666;23.264;2022-12-10T07:58:19;19.97;;;10.40;;
6344;SDS011;3205;42.666;23.264;2022-12-10T08:00:45;20.13;;;10.37;;
6344;SDS011;3205;42.666;23.264;2022-12-10T08:03:12;19.23;;;10.70;;
6344;SDS011;3205;42.666;23.264;2022-12-10T08:05:38;17.00;;;9.33;;
6344;SDS011;3205;42.666;23.264;2022-12-10T08:08:04;17.17;;;8.97;;
6344;SDS011;3205;42.666;23.264;2022-12-10T08:10:32;23.63;;;9.77;;
6344;SDS011;3205;42.666;23.264;2022-12-10T08:12:59;20.83;;;10.83;;
6344;SDS011;3205;42.666;23.264;2022-12-10T08:15:25;13.47;;;9.27;;
6344;SDS011;3205;42.666;23.264;2022-12-10T08:17:53;17.73;;;9.03;;
6344;SDS011;3205;42.666;23.264;2022-12-10T08:20:21;16.47;;;8.80;;
6344;SDS011;3205;42.666;23.264;2022-12-10T08:22:47;21.30;;;10.30;;
6344;SDS011;3205;42.666;23.264;2022-12-10T08:25:15;21.57;;;10.27;;
6344;SDS011;3205;42.666;23.264;2022-12-10T08:27:41;16.87;;;8.73;;
6344;SDS011;3205;42.666;23.264;2022-12-10T08:30:08;14.50;;;8.17;;
6344;SDS011;3205;42.666;23.264;2022-12-10T08:32:34;16.00;;;8.77;;
6344;SDS011;3205;42.666;23.264;2022-12-10T08:35:00;13.60;;;8.30;;
6344;SDS011;3205;42.666;23.264;2022-12-10T08:37:27;18.03;;;8.97;;
6344;SDS011;3205;42.666;23.264;2022-12-10T08:39:53;14.43;;;9.10;;
6344;SDS011;3205;42.666;23.264;2022-12-10T08:42:19;21.47;;;9.07;;
6344;SDS011;3205;42.666;23.264;2022-12-10T08:44:45;22.60;;;10.23;;
6344;SDS011;3205;42.666;23.264;2022-12-10T08:47:12;22.53;;;9.37;;
6344;SDS011;3205;42.666;23.264;2022-12-10T08:49:38;17.27;;;9.47;;
6344;SDS011;3205;42.666;23.264;2022-12-10T08:52:04;20.10;;;10.10;;
6344;SDS011;3205;42.666;23.264;2022-12-10T08:54:31;20.40;;;10.10;;
6344;SDS011;3205;42.666;23.264;2022-12-10T08:56:57;21.83;;;10.53;;
6344;SDS011;3205;42.666;23.264;2022-12-10T08:59:23;23.10;;;10.80;;
6344;SDS011;3205;42.666;23.264;2022-12-10T09:01:50;20.33;;;11.00;;
6344;SDS011;3205;42.666;23.264;2022-12-10T09:04:17;19.57;;;9.57;;
6344;SDS011;3205;42.666;23.264;2022-12-10T09:06:44;20.30;;;10.03;;
6344;SDS011;3205;42.666;23.264;2022-12-10T09:09:11;19.93;;;10.07;;
6344;SDS011;3205;42.666;23.264;2022-12-10T09:11:38;17.10;;;10.20;;
6344;SDS011;3205;42.666;23.264;2022-12-10T09:14:04;23.83;;;10.77;;
6344;SDS011;3205;42.666;23.264;2022-12-10T09:16:31;22.60;;;10.20;;
6344;SDS011;3205;42.666;23.264;2022-12-10T09:18:58;27.23;;;11.87;;
6344;SDS011;3205;42.666;23.264;2022-12-10T09:21:25;28.20;;;11.77;;
6344;SDS011;3205;42.666;23.264;2022-12-10T09:23:52;20.97;;;11.70;;
6344;SDS011;3205;42.666;23.264;2022-12-10T09:26:19;18.83;;;11.90;;
6344;SDS011;3205;42.666;23.264;2022-12-10T09:28:47;24.10;;;10.73;;
6344;SDS011;3205;42.666;23.264;2022-12-10T09:31:15;25.50;;;10.33;;
6344;SDS011;3205;42.666;23.264;2022-12-10T09:33:42;20.67;;;10.73;;
6344;SDS011;3205;42.666;23.264;2022-12-10T09:36:10;21.37;;;10.10;;
6344;SDS011;3205;42.666;23.264;2022-12-10T09:38:37;22.30;;;12.43;;
6344;SDS011;3205;42.666;23.264;2022-12-10T09:41:15;16.83;;;10.07;;
6344;SDS011;3205;42.666;23.264;2022-12-10T09:44:00;15.93;;;9.90;;
6344;SDS011;3205;42.666;23.264;2022-12-10T09:46:36;21.33;;;10.37;;
6344;SDS011;3205;42.666;23.264;2022-12-10T09:49:11;20.63;;;11.33;;
6344;SDS011;3205;42.666;23.264;2022-12-10T09:51:45;17.37;;;10.50;;
6344;SDS011;3205;42.666;23.264;2022-12-10T09:54:12;20.17;;;10.77;;
6344;SDS011;3205;42.666;23.264;2022-12-10T09:56:43;19.97;;;10.27;;
6344;SDS011;3205;42.666;23.264;2022-12-10T09:59:13;28.03;;;11.60;;
6344;SDS011;3205;42.666;23.264;2022-12-10T10:01:44;22.60;;;12.00;;
6344;SDS011;3205;42.666;23.264;2022-12-10T10:04:12;16.70;;;10.60;;
6344;SDS011;3205;42.666;23.264;2022-12-10T10:06:38;16.47;;;10.17;;
6344;SDS011;3205;42.666;23.264;2022-12-10T10:09:06;16.77;;;10.07;;
6344;SDS011;3205;42.666;23.264;2022-12-10T10:11:38;20.50;;;11.07;;
6344;SDS011;3205;42.666;23.264;2022-12-10T10:14:05;21.73;;;9.97;;
6344;SDS011;3205;42.666;23.264;2022-12-10T10:16:39;17.00;;;9.10;;
6344;SDS011;3205;42.666;23.264;2022-12-10T10:19:13;20.17;;;9.33;;
6344;SDS011;3205;42.666;23.264;2022-12-10T10:21:42;22.40;;;10.10;;
6344;SDS011;3205;42.666;23.264;2022-12-10T10:24:11;16.10;;;8.37;;
6344;SDS011;3205;42.666;23.264;2022-12-10T10:26:39;13.80;;;8.53;;
6344;SDS011;3205;42.666;23.264;2022-12-10T10:29:06;20.07;;;8.93;;
6344;SDS011;3205;42.666;23.264;2022-12-10T10:31:35;20.63;;;9.37;;
6344;SDS011;3205;42.666;23.264;2022-12-10T10:34:06;15.53;;;8.97;;
6344;SDS011;3205;42.666;23.264;2022-12-10T10:36:40;14.30;;;8.70;;
6344;SDS011;3205;42.666;23.264;2022-12-10T10:39:07;17.43;;;9.43;;
6344;SDS011;3205;42.666;23.264;2022-12-10T10:41:35;24.83;;;10.47;;
6344;SDS011;3205;42.666;23.264;2022-12-10T10:44:04;17.40;;;9.33;;
6344;SDS011;3205;42.666;23.264;2022-12-10T10:46:39;15.20;;;9.63;;
6344;SDS011;3205;42.666;23.264;2022-12-10T10:49:17;18.23;;;8.90;;
6344;SDS011;3205;42.666;23.264;2022-12-10T10:51:47;20.23;;;9.83;;
6344;SDS011;3205;42.666;23.264;2022-12-10T10:54:16;17.47;;;9.00;;
6344;SDS011;3205;42.666;23.264;2022-12-10T10:56:57;27.80;;;9.53;;
6344;SDS011;3205;42.666;23.264;2022-12-10T10:59:28;20.40;;;9.43;;
6344;SDS011;3205;42.666;23.264;2022-12-10T11:01:59;17.80;;;11.43;;
6344;SDS011;3205;42.666;23.264;2022-12-10T11:04:30;17.57;;;10.50;;
6344;SDS011;3205;42.666;23.264;2022-12-10T11:07:04;21.80;;;10.00;;
6344;SDS011;3205;42.666;23.264;2022-12-10T11:09:40;20.17;;;8.90;;
6344;SDS011;3205;42.666;23.264;2022-12-10T11:12:21;20.30;;;8.53;;
6344;SDS011;3205;42.666;23.264;2022-12-10T11:14:54;18.37;;;8.63;;
6344;SDS011;3205;42.666;23.264;2022-12-10T11:17:22;19.63;;;8.57;;
6344;SDS011;3205;42.666;23.264;2022-12-10T11:19:53;17.20;;;8.73;;
6344;SDS011;3205;42.666;23.264;2022-12-10T11:22:22;10.13;;;6.93;;
6344;SDS011;3205;42.666;23.264;2022-12-10T11:24:50;13.47;;;6.70;;
6344;SDS011;3205;42.666;23.264;2022-12-10T11:27:18;16.67;;;6.57;;
6344;SDS011;3205;42.666;23.264;2022-12-10T11:29:58;16.43;;;7.43;;
6344;SDS011;3205;42.666;23.264;2022-12-10T11:32:33;14.80;;;6.60;;
6344;SDS011;3205;42.666;23.264;2022-12-10T11:35:19;20.10;;;6.77;;
6344;SDS011;3205;42.666;23.264;2022-12-10T11:37:56;8.67;;;5.53;;
6344;SDS011;3205;42.666;23.264;2022-12-10T11:40:32;11.60;;;4.50;;
6344;SDS011;3205;42.666;23.264;2022-12-10T11:43:11;13.10;;;5.53;;
6344;SDS011;3205;42.666;23.264;2022-12-10T11:45:53;9.20;;;5.00;;
6344;SDS011;3205;42.666;23.264;2022-12-10T11:48:34;10.53;;;5.57;;
6344;SDS011;3205;42.666;23.264;2022-12-10T11:51:15;16.50;;;6.23;;
6344;SDS011;3205;42.666;23.264;2022-12-10T11:53:48;13.20;;;5.30;;
6344;SDS011;3205;42.666;23.264;2022-12-10T11:56:22;9.50;;;5.47;;
6344;SDS011;3205;42.666;23.264;2022-12-10T11:58:55;8.93;;;5.60;;
6344;SDS011;3205;42.666;23.264;2022-12-10T12:01:31;13.73;;;6.00;;
6344;SDS011;3205;42.666;23.264;2022-12-10T12:07:04;12.10;;;6.47;;
6344;SDS011;3205;42.666;23.264;2022-12-10T12:09:54;12.30;;;7.30;;
6344;SDS011;3205;42.666;23.264;2022-12-10T12:12:44;16.17;;;7.03;;
6344;SDS011;3205;42.666;23.264;2022-12-10T12:15:19;15.67;;;7.73;;
6344;SDS011;3205;42.666;23.264;2022-12-10T12:17:52;13.13;;;6.70;;
6344;SDS011;3205;42.666;23.264;2022-12-10T12:20:24;8.77;;;5.73;;
6344;SDS011;3205;42.666;23.264;2022-12-10T12:22:56;15.17;;;6.57;;
6344;SDS011;3205;42.666;23.264;2022-12-10T12:25:26;19.73;;;7.37;;
6344;SDS011;3205;42.666;23.264;2022-12-10T12:27:59;18.80;;;6.40;;
6344;SDS011;3205;42.666;23.264;2022-12-10T12:30:31;14.00;;;7.03;;
6344;SDS011;3205;42.666;23.264;2022-12-10T12:33:00;16.27;;;7.70;;
6344;SDS011;3205;42.666;23.264;2022-12-10T12:35:35;17.30;;;8.27;;
6344;SDS011;3205;42.666;23.264;2022-12-10T12:38:10;23.10;;;7.60;;
6344;SDS011;3205;42.666;23.264;2022-12-10T12:40:48;12.97;;;6.60;;
6344;SDS011;3205;42.666;23.264;2022-12-10T12:43:19;12.90;;;7.30;;
6344;SDS011;3205;42.666;23.264;2022-12-10T12:45:52;30.60;;;7.30;;
6344;SDS011;3205;42.666;23.264;2022-12-10T12:48:22;18.67;;;7.13;;
6344;SDS011;3205;42.666;23.264;2022-12-10T12:50:54;17.93;;;7.47;;
6344;SDS011;3205;42.666;23.264;2022-12-10T12:53:26;17.70;;;7.70;;
6344;SDS011;3205;42.666;23.264;2022-12-10T12:55:55;17.07;;;8.00;;
6344;SDS011;3205;42.666;23.264;2022-12-10T12:58:27;18.47;;;9.20;;
6344;SDS011;3205;42.666;23.264;2022-12-10T13:01:00;22.57;;;10.00;;
6344;SDS011;3205;42.666;23.264;2022-12-10T13:03:36;21.77;;;7.27;;
6344;SDS011;3205;42.666;23.264;2022-12-10T13:06:14;25.77;;;8.13;;
6344;SDS011;3205;42.666;23.264;2022-12-10T13:08:45;16.93;;;8.90;;
6344;SDS011;3205;42.666;23.264;2022-12-10T13:11:17;14.57;;;7.43;;
6344;SDS011;3205;42.666;23.264;2022-12-10T13:14:11;18.70;;;8.67;;
6344;SDS011;3205;42.666;23.264;2022-12-10T13:16:58;22.13;;;8.60;;
6344;SDS011;3205;42.666;23.264;2022-12-10T13:19:41;15.43;;;7.87;;
6344;SDS011;3205;42.666;23.264;2022-12-10T13:22:09;19.23;;;7.93;;
6344;SDS011;3205;42.666;23.264;2022-12-10T13:24:43;21.40;;;9.97;;
6344;SDS011;3205;42.666;23.264;2022-12-10T13:27:15;28.97;;;9.50;;
6344;SDS011;3205;42.666;23.264;2022-12-10T13:29:44;20.90;;;8.23;;
6344;SDS011;3205;42.666;23.264;2022-12-10T13:32:15;18.53;;;8.10;;
6344;SDS011;3205;42.666;23.264;2022-12-10T13:34:43;30.33;;;8.80;;
6344;SDS011;3205;42.666;23.264;2022-12-10T13:42:50;22.63;;;9.70;;
6344;SDS011;3205;42.666;23.264;2022-12-10T13:45:40;16.80;;;10.00;;
6344;SDS011;3205;42.666;23.264;2022-12-10T13:48:23;19.83;;;9.30;;
6344;SDS011;3205;42.666;23.264;2022-12-10T13:51:14;27.70;;;10.93;;
6344;SDS011;3205;42.666;23.264;2022-12-10T13:53:54;23.03;;;9.87;;
6344;SDS011;3205;42.666;23.264;2022-12-10T13:56:32;21.83;;;10.53;;
6344;SDS011;3205;42.666;23.264;2022-12-10T13:59:13;18.97;;;9.53;;
6344;SDS011;3205;42.666;23.264;2022-12-10T14:01:51;23.97;;;10.77;;
6344;SDS011;3205;42.666;23.264;2022-12-10T14:04:35;22.93;;;9.27;;
6344;SDS011;3205;42.666;23.264;2022-12-10T14:07:12;22.97;;;10.50;;
6344;SDS011;3205;42.666;23.264;2022-12-10T14:09:42;27.27;;;10.37;;
6344;SDS011;3205;42.666;23.264;2022-12-10T14:12:14;32.67;;;13.07;;
6344;SDS011;3205;42.666;23.264;2022-12-10T14:14:46;33.87;;;13.87;;
6344;SDS011;3205;42.666;23.264;2022-12-10T14:17:18;32.57;;;13.23;;
6344;SDS011;3205;42.666;23.264;2022-12-10T14:19:46;52.77;;;14.33;;
6344;SDS011;3205;42.666;23.264;2022-12-10T14:22:16;30.20;;;12.70;;
6344;SDS011;3205;42.666;23.264;2022-12-10T14:24:50;42.07;;;17.73;;
6344;SDS011;3205;42.666;23.264;2022-12-10T14:27:17;31.03;;;13.57;;
6344;SDS011;3205;42.666;23.264;2022-12-10T14:29:45;32.33;;;15.47;;
6344;SDS011;3205;42.666;23.264;2022-12-10T14:32:13;47.03;;;17.40;;
6344;SDS011;3205;42.666;23.264;2022-12-10T14:34:41;66.37;;;28.67;;
6344;SDS011;3205;42.666;23.264;2022-12-10T14:37:09;135.90;;;52.03;;
6344;SDS011;3205;42.666;23.264;2022-12-10T14:39:39;59.53;;;21.00;;
6344;SDS011;3205;42.666;23.264;2022-12-10T14:42:06;43.53;;;20.13;;
6344;SDS011;3205;42.666;23.264;2022-12-10T14:44:40;53.87;;;23.10;;
6344;SDS011;3205;42.666;23.264;2022-12-10T14:47:12;58.17;;;24.67;;
6344;SDS011;3205;42.666;23.264;2022-12-10T14:49:41;45.20;;;21.80;;
6344;SDS011;3205;42.666;23.264;2022-12-10T14:52:10;42.83;;;18.97;;
6344;SDS011;3205;42.666;23.264;2022-12-10T14:54:39;45.87;;;20.77;;
6344;SDS011;3205;42.666;23.264;2022-12-10T14:57:07;45.80;;;23.13;;
6344;SDS011;3205;42.666;23.264;2022-12-10T14:59:41;38.53;;;19.90;;
6344;SDS011;3205;42.666;23.264;2022-12-10T15:02:13;35.90;;;17.97;;
6344;SDS011;3205;42.666;23.264;2022-12-10T15:04:45;46.10;;;23.17;;